Terminal Aerodrome Forecast
Issued by NWS

Home | Current Version | Previous Version | Text Only | Print | Product List | Glossary On
Versions: 1 2 3 4 5 6 7 8 9 10 11 12 13 14 15 16 17 18 19 20
283
FTUS42 KFFC 232328
TAFFTY
TAF
KFTY 232328Z 2400/2424 05007KT P6SM FEW035 SCT080
     FM240200 VRB03KT P6SM SCT150 BKN250
     FM241500 25005KT P6SM SCT040
     FM241800 21007KT P6SM VCSH SCT050 PROB30 2418/2424 4SM TSRA
      BKN040CB=

USA.gov is the U.S. government's official web portal to all federal, state and local government web resources and services.